N26ES KTEB-KCAK
Flight info
| Callsign | N26ES |
|---|---|
| Flight time | 1h 37m |
| Altitude | 40000 |
| Route | NEWEL J60 PSB SOORD ZZIPS1 |
| Aircraft | CL60/M-SBDE1E2E3FGHIJ1J4J5J7M3RWXYZ/LB1V1D1 |
Departure
| Time | 2026-05-09 00:55 |
|---|---|
| Airport | Teterboro Airport (KTEB) |
Arrival
| Time | 2026-05-09 02:32 |
|---|---|
| Airport | Akron Canton Regional Airport (KCAK) |
| Time | Latitude | Longitude | Altitude | Speed | Heading |
|---|---|---|---|---|---|
| 2026-05-09 00:14 | 40.84660 | -74.06603 | 12 ft | 0 kts | 228° |
| 2026-05-09 00:43 | 40.84659 | -74.06604 | 12 ft | 1 kts | 228° |
| 2026-05-09 00:43 | 40.84656 | -74.06608 | 12 ft | 0 kts | 227° |
| 2026-05-09 00:44 | 40.84648 | -74.06620 | 12 ft | 2 kts | 232° |
| 2026-05-09 00:44 | 40.84656 | -74.06655 | 12 ft | 4 kts | 323° |
| 2026-05-09 00:45 | 40.84665 | -74.06664 | 12 ft | 0 kts | 324° |
| 2026-05-09 00:45 | 40.84666 | -74.06665 | 12 ft | 0 kts | 324° |
| 2026-05-09 00:46 | 40.84678 | -74.06677 | 12 ft | 4 kts | 324° |
| 2026-05-09 00:46 | 40.84698 | -74.06699 | 12 ft | 0 kts | 318° |
| 2026-05-09 00:48 | 40.84699 | -74.06699 | 12 ft | 0 kts | 318° |
| 2026-05-09 00:48 | 40.84713 | -74.06715 | 12 ft | 4 kts | 322° |
| 2026-05-09 00:48 | 40.84752 | -74.06699 | 12 ft | 8 kts | 49° |
| 2026-05-09 00:49 | 40.84800 | -74.06625 | 12 ft | 12 kts | 49° |
| 2026-05-09 00:49 | 40.84863 | -74.06534 | 12 ft | 8 kts | 48° |
| 2026-05-09 00:49 | 40.84877 | -74.06477 | 12 ft | 6 kts | 127° |
| 2026-05-09 00:49 | 40.84837 | -74.06412 | 12 ft | 11 kts | 126° |
| 2026-05-09 00:50 | 40.84782 | -74.06316 | 12 ft | 14 kts | 128° |
| 2026-05-09 00:50 | 40.84712 | -74.06195 | 11 ft | 16 kts | 128° |
| 2026-05-09 00:50 | 40.84682 | -74.06145 | 11 ft | 5 kts | 128° |
| 2026-05-09 00:50 | 40.84633 | -74.06127 | 11 ft | 9 kts | 185° |
| 2026-05-09 00:51 | 40.84551 | -74.06133 | 11 ft | 13 kts | 183° |
| 2026-05-09 00:51 | 40.84443 | -74.06140 | 11 ft | 16 kts | 184° |
| 2026-05-09 00:51 | 40.84335 | -74.06149 | 11 ft | 11 kts | 183° |
| 2026-05-09 00:51 | 40.84241 | -74.06155 | 11 ft | 14 kts | 183° |
| 2026-05-09 00:52 | 40.84165 | -74.06162 | 11 ft | 6 kts | 183° |
| 2026-05-09 00:52 | 40.84103 | -74.06166 | 11 ft | 10 kts | 182° |
| 2026-05-09 00:52 | 40.84017 | -74.06171 | 11 ft | 13 kts | 184° |
| 2026-05-09 00:52 | 40.83934 | -74.06178 | 11 ft | 10 kts | 182° |
| 2026-05-09 00:53 | 40.83885 | -74.06172 | 11 ft | 6 kts | 132° |
| 2026-05-09 00:53 | 40.83882 | -74.06105 | 11 ft | 9 kts | 93° |
| 2026-05-09 00:53 | 40.83892 | -74.06035 | 11 ft | 5 kts | 22° |
| 2026-05-09 00:53 | 40.83919 | -74.06035 | 11 ft | 0 kts | 3° |
| 2026-05-09 00:54 | 40.83922 | -74.06034 | 11 ft | 1 kts | 3° |
| 2026-05-09 00:54 | 40.84127 | -74.06020 | 11 ft | 85 kts | 3° |
| 2026-05-09 00:54 | 40.85132 | -74.05954 | 138 ft | 186 kts | 1° |
| 2026-05-09 00:55 | 40.86470 | -74.05802 | 1166 ft | 207 kts | 13° |
| 2026-05-09 00:55 | 40.87911 | -74.04977 | 1979 ft | 248 kts | 25° |
| 2026-05-09 00:55 | 40.89627 | -74.04458 | 3010 ft | 267 kts | 350° |
| 2026-05-09 00:55 | 40.91203 | -74.05373 | 4673 ft | 247 kts | 313° |
| 2026-05-09 00:56 | 40.92086 | -74.07207 | 5722 ft | 253 kts | 286° |
| 2026-05-09 00:56 | 40.92233 | -74.09521 | 6244 ft | 245 kts | 268° |
| 2026-05-09 00:56 | 40.92139 | -74.11670 | 6990 ft | 238 kts | 264° |
| 2026-05-09 00:56 | 40.91964 | -74.13865 | 7556 ft | 238 kts | 267° |
| 2026-05-09 00:57 | 40.91876 | -74.16050 | 8202 ft | 244 kts | 267° |
| 2026-05-09 00:57 | 40.91798 | -74.18359 | 8862 ft | 252 kts | 268° |
| 2026-05-09 00:57 | 40.91724 | -74.20673 | 9502 ft | 254 kts | 268° |
| 2026-05-09 00:57 | 40.91643 | -74.23027 | 9850 ft | 256 kts | 268° |
| 2026-05-09 00:58 | 40.91565 | -74.25383 | 9925 ft | 255 kts | 268° |
| 2026-05-09 00:58 | 40.91483 | -74.27728 | 9925 ft | 254 kts | 268° |
| 2026-05-09 00:58 | 40.91403 | -74.30059 | 9926 ft | 252 kts | 268° |
| 2026-05-09 00:58 | 40.91322 | -74.32381 | 9926 ft | 252 kts | 268° |
| 2026-05-09 00:59 | 40.91299 | -74.34681 | 9956 ft | 250 kts | 271° |
| 2026-05-09 00:59 | 40.91335 | -74.37012 | 10557 ft | 263 kts | 271° |
| 2026-05-09 00:59 | 40.91369 | -74.39505 | 11292 ft | 283 kts | 271° |
| 2026-05-09 00:59 | 40.91404 | -74.42135 | 12043 ft | 290 kts | 272° |
| 2026-05-09 01:00 | 40.91439 | -74.44813 | 12799 ft | 292 kts | 272° |
| 2026-05-09 01:00 | 40.91474 | -74.47482 | 13555 ft | 292 kts | 273° |
| 2026-05-09 01:00 | 40.91508 | -74.50154 | 14306 ft | 293 kts | 273° |
| 2026-05-09 01:00 | 40.91543 | -74.52859 | 15061 ft | 295 kts | 273° |
| 2026-05-09 01:01 | 40.91577 | -74.55574 | 15817 ft | 298 kts | 274° |
| 2026-05-09 01:01 | 40.91611 | -74.58308 | 16509 ft | 304 kts | 273° |
| 2026-05-09 01:01 | 40.91645 | -74.61134 | 16842 ft | 308 kts | 274° |
| 2026-05-09 01:01 | 40.91679 | -74.63967 | 16936 ft | 308 kts | 274° |
| 2026-05-09 01:02 | 40.91712 | -74.66829 | 16926 ft | 307 kts | 274° |
| 2026-05-09 01:02 | 40.91744 | -74.69651 | 16920 ft | 305 kts | 273° |
| 2026-05-09 01:02 | 40.91775 | -74.72449 | 16927 ft | 306 kts | 273° |
| 2026-05-09 01:02 | 40.91807 | -74.75285 | 16934 ft | 305 kts | 273° |
| 2026-05-09 01:03 | 40.91836 | -74.78033 | 17534 ft | 298 kts | 273° |
| 2026-05-09 01:03 | 40.91864 | -74.80770 | 18264 ft | 304 kts | 274° |
| 2026-05-09 01:03 | 40.91895 | -74.83627 | 19052 ft | 312 kts | 274° |
| 2026-05-09 01:03 | 40.91925 | -74.86524 | 19938 ft | 318 kts | 274° |
| 2026-05-09 01:04 | 40.91953 | -74.89406 | 20998 ft | 319 kts | 274° |
| 2026-05-09 01:04 | 40.91980 | -74.92316 | 22099 ft | 318 kts | 273° |
| 2026-05-09 01:04 | 40.92007 | -74.95242 | 23080 ft | 319 kts | 273° |
| 2026-05-09 01:04 | 40.92033 | -74.98138 | 23938 ft | 322 kts | 274° |
| 2026-05-09 01:05 | 40.92060 | -75.01111 | 24850 ft | 324 kts | 274° |
| 2026-05-09 01:05 | 40.92085 | -75.04073 | 25666 ft | 327 kts | 272° |
| 2026-05-09 01:05 | 40.92135 | -75.10123 | 27203 ft | 332 kts | 273° |
| 2026-05-09 01:06 | 40.92159 | -75.13191 | 27949 ft | 333 kts | 272° |
| 2026-05-09 01:06 | 40.92160 | -75.16254 | 28583 ft | 337 kts | 269° |
| 2026-05-09 01:06 | 40.91713 | -75.19278 | 29235 ft | 343 kts | 258° |
| 2026-05-09 01:06 | 40.91005 | -75.22282 | 29791 ft | 347 kts | 258° |
| 2026-05-09 01:07 | 40.90272 | -75.25392 | 30348 ft | 349 kts | 257° |
| 2026-05-09 01:07 | 40.89547 | -75.28473 | 30871 ft | 351 kts | 258° |
| 2026-05-09 01:07 | 40.88823 | -75.31550 | 31343 ft | 352 kts | 257° |
| 2026-05-09 01:07 | 40.88089 | -75.34663 | 31754 ft | 355 kts | 258° |
| 2026-05-09 01:08 | 40.87356 | -75.37769 | 32155 ft | 356 kts | 258° |
| 2026-05-09 01:08 | 40.86617 | -75.40898 | 32569 ft | 356 kts | 258° |
| 2026-05-09 01:08 | 40.85882 | -75.44006 | 32937 ft | 356 kts | 257° |
| 2026-05-09 01:08 | 40.85145 | -75.47115 | 33265 ft | 358 kts | 258° |
| 2026-05-09 01:09 | 40.84403 | -75.50243 | 33550 ft | 359 kts | 257° |
| 2026-05-09 01:09 | 40.83657 | -75.53390 | 33865 ft | 360 kts | 257° |
| 2026-05-09 01:09 | 40.82907 | -75.56542 | 34177 ft | 359 kts | 258° |
| 2026-05-09 01:09 | 40.82149 | -75.59724 | 34460 ft | 359 kts | 257° |
| 2026-05-09 01:10 | 40.81410 | -75.62829 | 34733 ft | 357 kts | 257° |
| 2026-05-09 01:10 | 40.80661 | -75.65964 | 34996 ft | 357 kts | 257° |
| 2026-05-09 01:10 | 40.79912 | -75.69102 | 35226 ft | 358 kts | 257° |
| 2026-05-09 01:10 | 40.79164 | -75.72237 | 35419 ft | 360 kts | 257° |
| 2026-05-09 01:11 | 40.78407 | -75.75401 | 35646 ft | 361 kts | 257° |
| 2026-05-09 01:11 | 40.77647 | -75.78572 | 35912 ft | 361 kts | 257° |
| 2026-05-09 01:11 | 40.76888 | -75.81733 | 36213 ft | 361 kts | 256° |
| 2026-05-09 01:11 | 40.76125 | -75.84905 | 36534 ft | 361 kts | 257° |
| 2026-05-09 01:12 | 40.75376 | -75.88020 | 36797 ft | 361 kts | 256° |
| 2026-05-09 01:12 | 40.74610 | -75.91200 | 37040 ft | 362 kts | 256° |
| 2026-05-09 01:12 | 40.73851 | -75.94347 | 37287 ft | 362 kts | 256° |
| 2026-05-09 01:12 | 40.73086 | -75.97509 | 37544 ft | 362 kts | 256° |
| 2026-05-09 01:13 | 40.72323 | -76.00662 | 37804 ft | 361 kts | 257° |
| 2026-05-09 01:13 | 40.71555 | -76.03837 | 38008 ft | 362 kts | 256° |
| 2026-05-09 01:13 | 40.70787 | -76.06998 | 38241 ft | 361 kts | 256° |
| 2026-05-09 01:13 | 40.70025 | -76.10137 | 38390 ft | 362 kts | 256° |
| 2026-05-09 01:14 | 40.69252 | -76.13316 | 38553 ft | 363 kts | 256° |
| 2026-05-09 01:14 | 40.68484 | -76.16469 | 38765 ft | 363 kts | 256° |
| 2026-05-09 01:14 | 40.67726 | -76.19631 | 38951 ft | 362 kts | 257° |
| 2026-05-09 01:14 | 40.67227 | -76.22854 | 39080 ft | 359 kts | 265° |
| 2026-05-09 01:15 | 40.67137 | -76.26181 | 39206 ft | 360 kts | 272° |
| 2026-05-09 01:15 | 40.67458 | -76.29462 | 39318 ft | 362 kts | 279° |
| 2026-05-09 01:15 | 40.67948 | -76.32709 | 39464 ft | 362 kts | 279° |
| 2026-05-09 01:16 | 40.68926 | -76.39241 | 39627 ft | 364 kts | 279° |
| 2026-05-09 01:16 | 40.69900 | -76.45780 | 39834 ft | 366 kts | 279° |
| 2026-05-09 01:17 | 40.70879 | -76.52377 | 39949 ft | 368 kts | 279° |
| 2026-05-09 01:17 | 40.71372 | -76.55703 | 39954 ft | 369 kts | 279° |
| 2026-05-09 01:17 | 40.72349 | -76.62332 | 39955 ft | 369 kts | 279° |
| 2026-05-09 01:18 | 40.73323 | -76.68970 | 39958 ft | 368 kts | 279° |
| 2026-05-09 01:18 | 40.74291 | -76.75586 | 39956 ft | 367 kts | 278° |
| 2026-05-09 01:19 | 40.75255 | -76.82209 | 39959 ft | 366 kts | 279° |
| 2026-05-09 01:19 | 40.76205 | -76.88758 | 39955 ft | 365 kts | 278° |
| 2026-05-09 01:20 | 40.77155 | -76.95346 | 39953 ft | 366 kts | 279° |
| 2026-05-09 01:20 | 40.78104 | -77.01942 | 39956 ft | 367 kts | 278° |
| 2026-05-09 01:21 | 40.79047 | -77.08533 | 39951 ft | 367 kts | 278° |
| 2026-05-09 01:21 | 40.79987 | -77.15130 | 39961 ft | 367 kts | 279° |
| 2026-05-09 01:22 | 40.80923 | -77.21725 | 39956 ft | 366 kts | 279° |
| 2026-05-09 01:22 | 40.81857 | -77.28339 | 39941 ft | 366 kts | 278° |
| 2026-05-09 01:23 | 40.82784 | -77.34927 | 39938 ft | 368 kts | 278° |
| 2026-05-09 01:23 | 40.83719 | -77.41605 | 39944 ft | 368 kts | 278° |
| 2026-05-09 01:24 | 40.84642 | -77.48229 | 39941 ft | 368 kts | 278° |
| 2026-05-09 01:24 | 40.85568 | -77.54901 | 39954 ft | 368 kts | 278° |
| 2026-05-09 01:25 | 40.86488 | -77.61558 | 39956 ft | 368 kts | 278° |
| 2026-05-09 01:25 | 40.87406 | -77.68237 | 39963 ft | 369 kts | 278° |
| 2026-05-09 01:26 | 40.88317 | -77.74887 | 39965 ft | 369 kts | 278° |
| 2026-05-09 01:26 | 40.89230 | -77.81583 | 39966 ft | 369 kts | 278° |
| 2026-05-09 01:27 | 40.90134 | -77.88245 | 39964 ft | 368 kts | 278° |
| 2026-05-09 01:27 | 40.91032 | -77.94890 | 39968 ft | 368 kts | 278° |
| 2026-05-09 01:28 | 40.91819 | -78.01608 | 39960 ft | 368 kts | 275° |
| 2026-05-09 01:28 | 40.92301 | -78.08334 | 39957 ft | 368 kts | 274° |
| 2026-05-09 01:29 | 40.92783 | -78.15053 | 39944 ft | 368 kts | 275° |
| 2026-05-09 01:29 | 40.93263 | -78.21783 | 39940 ft | 368 kts | 275° |
| 2026-05-09 01:30 | 40.93739 | -78.28516 | 39941 ft | 368 kts | 275° |
| 2026-05-09 01:30 | 40.94213 | -78.35251 | 39941 ft | 368 kts | 274° |
| 2026-05-09 01:31 | 40.94687 | -78.42040 | 39940 ft | 369 kts | 274° |
| 2026-05-09 01:31 | 40.95154 | -78.48796 | 39933 ft | 369 kts | 274° |
| 2026-05-09 01:32 | 40.95619 | -78.55559 | 39929 ft | 370 kts | 275° |
| 2026-05-09 01:32 | 40.96081 | -78.62336 | 39927 ft | 370 kts | 275° |
| 2026-05-09 01:33 | 40.96357 | -78.66405 | 39931 ft | 370 kts | 274° |
| 2026-05-09 01:33 | 40.96815 | -78.73209 | 39920 ft | 370 kts | 274° |
| 2026-05-09 01:34 | 40.97268 | -78.80015 | 39581 ft | 378 kts | 274° |
| 2026-05-09 01:34 | 40.97496 | -78.83484 | 39119 ft | 377 kts | 274° |
| 2026-05-09 01:34 | 40.97725 | -78.86949 | 38651 ft | 372 kts | 274° |
| 2026-05-09 01:35 | 40.97946 | -78.90330 | 38184 ft | 369 kts | 274° |
| 2026-05-09 01:35 | 40.98166 | -78.93687 | 37681 ft | 367 kts | 274° |
| 2026-05-09 01:35 | 40.98382 | -78.97015 | 37207 ft | 365 kts | 274° |
| 2026-05-09 01:35 | 40.98597 | -79.00342 | 36719 ft | 363 kts | 273° |
| 2026-05-09 01:36 | 40.98811 | -79.03671 | 36238 ft | 361 kts | 274° |
| 2026-05-09 01:36 | 40.99020 | -79.06931 | 35762 ft | 360 kts | 274° |
| 2026-05-09 01:36 | 40.99233 | -79.10269 | 35290 ft | 360 kts | 274° |
| 2026-05-09 01:36 | 40.99442 | -79.13564 | 34806 ft | 359 kts | 274° |
| 2026-05-09 01:37 | 40.99647 | -79.16816 | 34337 ft | 359 kts | 273° |
| 2026-05-09 01:37 | 40.99854 | -79.20111 | 33850 ft | 359 kts | 274° |
| 2026-05-09 01:37 | 41.00061 | -79.23418 | 33368 ft | 359 kts | 274° |
| 2026-05-09 01:37 | 41.00265 | -79.26698 | 32868 ft | 358 kts | 274° |
| 2026-05-09 01:38 | 41.00467 | -79.29957 | 32424 ft | 353 kts | 275° |
| 2026-05-09 01:38 | 41.00666 | -79.33173 | 31952 ft | 352 kts | 275° |
| 2026-05-09 01:38 | 41.00863 | -79.36391 | 31501 ft | 350 kts | 275° |
| 2026-05-09 01:38 | 41.01059 | -79.39595 | 31034 ft | 348 kts | 275° |
| 2026-05-09 01:39 | 41.01253 | -79.42789 | 30585 ft | 346 kts | 275° |
| 2026-05-09 01:39 | 41.01445 | -79.45957 | 30121 ft | 343 kts | 276° |
| 2026-05-09 01:39 | 41.01633 | -79.49082 | 29676 ft | 341 kts | 276° |
| 2026-05-09 01:39 | 41.01821 | -79.52214 | 29230 ft | 340 kts | 276° |
| 2026-05-09 01:40 | 41.02008 | -79.55332 | 28771 ft | 339 kts | 276° |
| 2026-05-09 01:40 | 41.02193 | -79.58432 | 28326 ft | 337 kts | 276° |
| 2026-05-09 01:40 | 41.02377 | -79.61527 | 27876 ft | 336 kts | 275° |
| 2026-05-09 01:40 | 41.02560 | -79.64621 | 27428 ft | 335 kts | 276° |
| 2026-05-09 01:41 | 41.02742 | -79.67725 | 26981 ft | 334 kts | 275° |
| 2026-05-09 01:41 | 41.02920 | -79.70773 | 26536 ft | 333 kts | 275° |
| 2026-05-09 01:41 | 41.03098 | -79.73814 | 26097 ft | 331 kts | 275° |
| 2026-05-09 01:41 | 41.03274 | -79.76852 | 25665 ft | 329 kts | 275° |
| 2026-05-09 01:42 | 41.03449 | -79.79878 | 25221 ft | 329 kts | 275° |
| 2026-05-09 01:42 | 41.03623 | -79.82903 | 24784 ft | 327 kts | 275° |
| 2026-05-09 01:42 | 41.03795 | -79.85917 | 24352 ft | 326 kts | 276° |
| 2026-05-09 01:42 | 41.03967 | -79.88901 | 23913 ft | 326 kts | 274° |
| 2026-05-09 01:43 | 41.04136 | -79.91877 | 23489 ft | 325 kts | 274° |
| 2026-05-09 01:43 | 41.04303 | -79.94849 | 23062 ft | 324 kts | 275° |
| 2026-05-09 01:43 | 41.04472 | -79.97855 | 22630 ft | 323 kts | 275° |
| 2026-05-09 01:43 | 41.04636 | -80.00806 | 22204 ft | 323 kts | 275° |
| 2026-05-09 01:44 | 41.04802 | -80.03784 | 21774 ft | 322 kts | 275° |
| 2026-05-09 01:44 | 41.04966 | -80.06735 | 21339 ft | 323 kts | 274° |
| 2026-05-09 01:44 | 41.05129 | -80.09698 | 20904 ft | 323 kts | 274° |
| 2026-05-09 01:44 | 41.05292 | -80.12675 | 20474 ft | 323 kts | 274° |
| 2026-05-09 01:45 | 41.05440 | -80.15642 | 20042 ft | 323 kts | 273° |
| 2026-05-09 01:45 | 41.05516 | -80.18604 | 19601 ft | 323 kts | 271° |
| 2026-05-09 01:45 | 41.05580 | -80.21586 | 19162 ft | 322 kts | 271° |
| 2026-05-09 01:45 | 41.05644 | -80.24541 | 18735 ft | 321 kts | 271° |
| 2026-05-09 01:46 | 41.05708 | -80.27486 | 18309 ft | 322 kts | 271° |
| 2026-05-09 01:46 | 41.05771 | -80.30448 | 17891 ft | 321 kts | 271° |
| 2026-05-09 01:46 | 41.05833 | -80.33364 | 17469 ft | 319 kts | 271° |
| 2026-05-09 01:46 | 41.05894 | -80.36286 | 17123 ft | 316 kts | 271° |
| 2026-05-09 01:47 | 41.05954 | -80.39206 | 16682 ft | 317 kts | 271° |
| 2026-05-09 01:47 | 41.06014 | -80.42105 | 16275 ft | 314 kts | 271° |
| 2026-05-09 01:47 | 41.06073 | -80.44991 | 15853 ft | 313 kts | 271° |
| 2026-05-09 01:47 | 41.06129 | -80.47875 | 15436 ft | 311 kts | 271° |
| 2026-05-09 01:48 | 41.06185 | -80.50744 | 15022 ft | 309 kts | 270° |
| 2026-05-09 01:48 | 41.06239 | -80.53543 | 14613 ft | 307 kts | 270° |
| 2026-05-09 01:48 | 41.06290 | -80.56364 | 14208 ft | 306 kts | 270° |
| 2026-05-09 01:48 | 41.06341 | -80.59193 | 13796 ft | 305 kts | 270° |
| 2026-05-09 01:49 | 41.06394 | -80.61974 | 13391 ft | 303 kts | 270° |
| 2026-05-09 01:49 | 41.06447 | -80.64764 | 12991 ft | 302 kts | 270° |
| 2026-05-09 01:49 | 41.06496 | -80.67547 | 12588 ft | 300 kts | 270° |
| 2026-05-09 01:49 | 41.06547 | -80.70287 | 12185 ft | 298 kts | 270° |
| 2026-05-09 01:50 | 41.06595 | -80.73025 | 11788 ft | 296 kts | 269° |
| 2026-05-09 01:50 | 41.06644 | -80.75761 | 11408 ft | 295 kts | 269° |
| 2026-05-09 01:50 | 41.06692 | -80.78452 | 11014 ft | 293 kts | 269° |
| 2026-05-09 01:50 | 41.06739 | -80.81164 | 10619 ft | 291 kts | 269° |
| 2026-05-09 01:51 | 41.06784 | -80.83816 | 10235 ft | 289 kts | 269° |
| 2026-05-09 01:51 | 41.06829 | -80.86454 | 9861 ft | 287 kts | 269° |
| 2026-05-09 01:51 | 41.06874 | -80.89127 | 9476 ft | 286 kts | 269° |
| 2026-05-09 01:51 | 41.06917 | -80.91727 | 9115 ft | 284 kts | 269° |
| 2026-05-09 01:52 | 41.06926 | -80.94331 | 8729 ft | 280 kts | 264° |
| 2026-05-09 01:52 | 41.06628 | -80.96819 | 8349 ft | 270 kts | 258° |
| 2026-05-09 01:52 | 41.06277 | -80.99232 | 7994 ft | 260 kts | 258° |
| 2026-05-09 01:52 | 41.05946 | -81.01539 | 7638 ft | 247 kts | 259° |
| 2026-05-09 01:53 | 41.05629 | -81.03734 | 7339 ft | 243 kts | 259° |
| 2026-05-09 01:53 | 41.05314 | -81.05925 | 7016 ft | 243 kts | 259° |
| 2026-05-09 01:53 | 41.04995 | -81.08140 | 6703 ft | 242 kts | 258° |
| 2026-05-09 01:53 | 41.04682 | -81.10322 | 6382 ft | 242 kts | 258° |
| 2026-05-09 01:54 | 41.04369 | -81.12507 | 6067 ft | 240 kts | 258° |
| 2026-05-09 01:54 | 41.04056 | -81.14685 | 5777 ft | 242 kts | 259° |
| 2026-05-09 01:54 | 41.03733 | -81.16898 | 5427 ft | 243 kts | 257° |
| 2026-05-09 01:54 | 41.02999 | -81.18871 | 5118 ft | 242 kts | 229° |
| 2026-05-09 01:55 | 41.01535 | -81.19936 | 4946 ft | 250 kts | 196° |
| 2026-05-09 01:55 | 40.99770 | -81.19736 | 4756 ft | 265 kts | 163° |
| 2026-05-09 01:55 | 40.98263 | -81.18230 | 4580 ft | 278 kts | 131° |
| 2026-05-09 01:55 | 40.97522 | -81.15868 | 4323 ft | 286 kts | 99° |
| 2026-05-09 01:56 | 40.97776 | -81.13274 | 4043 ft | 285 kts | 66° |
| 2026-05-09 01:56 | 40.98963 | -81.11277 | 3957 ft | 278 kts | 33° |
| 2026-05-09 01:56 | 41.00734 | -81.10360 | 3956 ft | 271 kts | 5° |
| 2026-05-09 01:56 | 41.02619 | -81.10071 | 3953 ft | 271 kts | 2° |
| 2026-05-09 01:57 | 41.04503 | -81.09817 | 3954 ft | 271 kts | 1° |
| 2026-05-09 01:57 | 41.06387 | -81.09566 | 3959 ft | 272 kts | 1° |
| 2026-05-09 01:57 | 41.08271 | -81.09315 | 3967 ft | 272 kts | 1° |
| 2026-05-09 01:57 | 41.10164 | -81.09061 | 3963 ft | 265 kts | 1° |
| 2026-05-09 01:58 | 41.11939 | -81.08785 | 3983 ft | 245 kts | 2° |
| 2026-05-09 01:58 | 41.13577 | -81.08506 | 3983 ft | 227 kts | 2° |
| 2026-05-09 01:58 | 41.15082 | -81.08241 | 3983 ft | 210 kts | 2° |
| 2026-05-09 01:58 | 41.16501 | -81.07983 | 3979 ft | 198 kts | 2° |
| 2026-05-09 01:59 | 41.17867 | -81.07726 | 3963 ft | 199 kts | 2° |
| 2026-05-09 01:59 | 41.19229 | -81.07577 | 3929 ft | 194 kts | 346° |
| 2026-05-09 01:59 | 41.20394 | -81.08357 | 3558 ft | 190 kts | 305° |
| 2026-05-09 01:59 | 41.20874 | -81.09985 | 3028 ft | 192 kts | 275° |
| 2026-05-09 02:00 | 41.20986 | -81.11777 | 2529 ft | 198 kts | 271° |
| 2026-05-09 02:00 | 41.21052 | -81.13570 | 2290 ft | 191 kts | 271° |
| 2026-05-09 02:00 | 41.21108 | -81.15278 | 2298 ft | 176 kts | 271° |
| 2026-05-09 02:00 | 41.21158 | -81.16914 | 2286 ft | 178 kts | 271° |
| 2026-05-09 02:01 | 41.21207 | -81.18539 | 2274 ft | 176 kts | 271° |
| 2026-05-09 02:01 | 41.21256 | -81.20184 | 2269 ft | 177 kts | 271° |
| 2026-05-09 02:01 | 41.21306 | -81.21809 | 2272 ft | 177 kts | 271° |
| 2026-05-09 02:01 | 41.21356 | -81.23438 | 2280 ft | 175 kts | 271° |
| 2026-05-09 02:02 | 41.21407 | -81.25068 | 2273 ft | 176 kts | 271° |
| 2026-05-09 02:02 | 41.21461 | -81.26678 | 2271 ft | 177 kts | 271° |
| 2026-05-09 02:02 | 41.21515 | -81.28314 | 2268 ft | 176 kts | 271° |
| 2026-05-09 02:02 | 41.21572 | -81.29954 | 2271 ft | 177 kts | 271° |
| 2026-05-09 02:03 | 41.21628 | -81.31582 | 2272 ft | 176 kts | 271° |
| 2026-05-09 02:03 | 41.21682 | -81.33225 | 2269 ft | 176 kts | 271° |
| 2026-05-09 02:03 | 41.21733 | -81.34837 | 2270 ft | 175 kts | 271° |
| 2026-05-09 02:03 | 41.21736 | -81.36461 | 2267 ft | 175 kts | 260° |
| 2026-05-09 02:04 | 41.21091 | -81.37805 | 2259 ft | 176 kts | 219° |
| 2026-05-09 02:04 | 41.20041 | -81.38666 | 2287 ft | 177 kts | 212° |
| 2026-05-09 02:04 | 41.18966 | -81.39468 | 2396 ft | 174 kts | 212° |
| 2026-05-09 02:04 | 41.17924 | -81.40237 | 2539 ft | 170 kts | 212° |
| 2026-05-09 02:05 | 41.16901 | -81.40984 | 2580 ft | 168 kts | 212° |
| 2026-05-09 02:05 | 41.15869 | -81.41732 | 2574 ft | 167 kts | 212° |
| 2026-05-09 02:05 | 41.14844 | -81.42482 | 2572 ft | 167 kts | 212° |
| 2026-05-09 02:05 | 41.13789 | -81.43162 | 2569 ft | 169 kts | 203° |
| 2026-05-09 02:06 | 41.12641 | -81.43513 | 2571 ft | 171 kts | 189° |
| 2026-05-09 02:06 | 41.11451 | -81.43541 | 2572 ft | 173 kts | 181° |
| 2026-05-09 02:06 | 41.10229 | -81.43378 | 2573 ft | 174 kts | 176° |
| 2026-05-09 02:07 | 41.07827 | -81.43079 | 2573 ft | 173 kts | 182° |
| 2026-05-09 02:07 | 41.06620 | -81.43091 | 2573 ft | 172 kts | 186° |
| 2026-05-09 02:07 | 41.05422 | -81.43190 | 2570 ft | 171 kts | 189° |
| 2026-05-09 02:07 | 41.04222 | -81.43317 | 2568 ft | 171 kts | 189° |
| 2026-05-09 02:08 | 41.03038 | -81.43426 | 2574 ft | 171 kts | 187° |
| 2026-05-09 02:08 | 41.01840 | -81.43507 | 2573 ft | 171 kts | 187° |
| 2026-05-09 02:08 | 41.00644 | -81.43570 | 2574 ft | 171 kts | 186° |
| 2026-05-09 02:08 | 40.99442 | -81.43632 | 2555 ft | 173 kts | 186° |
| 2026-05-09 02:09 | 40.98220 | -81.43702 | 2317 ft | 173 kts | 186° |
| 2026-05-09 02:09 | 40.97070 | -81.43764 | 2110 ft | 160 kts | 185° |
| 2026-05-09 02:09 | 40.96152 | -81.43813 | 1919 ft | 145 kts | 185° |
| 2026-05-09 02:09 | 40.95202 | -81.43867 | 1776 ft | 130 kts | 185° |
| 2026-05-09 02:10 | 40.94308 | -81.43922 | 1566 ft | 128 kts | 184° |
| 2026-05-09 02:10 | 40.93430 | -81.43979 | 1380 ft | 123 kts | 183° |
| 2026-05-09 02:10 | 40.92580 | -81.44029 | 1256 ft | 123 kts | 182° |
| 2026-05-09 02:10 | 40.91803 | -81.44067 | 1237 ft | 96 kts | 182° |
| 2026-05-09 02:11 | 40.90945 | -81.44115 | 1644 ft | 145 kts | 184° |
| 2026-05-09 02:11 | 40.89945 | -81.44198 | 2822 ft | 157 kts | 190° |
| 2026-05-09 02:11 | 40.88892 | -81.44311 | 3847 ft | 168 kts | 192° |
| 2026-05-09 02:11 | 40.87552 | -81.44484 | 3833 ft | 206 kts | 191° |
| 2026-05-09 02:12 | 40.85965 | -81.44674 | 3057 ft | 251 kts | 189° |
| 2026-05-09 02:12 | 40.84259 | -81.44835 | 2987 ft | 238 kts | 188° |
| 2026-05-09 02:12 | 40.82612 | -81.44940 | 2857 ft | 236 kts | 184° |
| 2026-05-09 02:12 | 40.80872 | -81.44919 | 3072 ft | 260 kts | 183° |
| 2026-05-09 02:13 | 40.79048 | -81.44841 | 3414 ft | 258 kts | 180° |
| 2026-05-09 02:13 | 40.77369 | -81.44345 | 3511 ft | 239 kts | 163° |
| 2026-05-09 02:13 | 40.75809 | -81.43531 | 3487 ft | 247 kts | 166° |
| 2026-05-09 02:13 | 40.74182 | -81.42962 | 3909 ft | 240 kts | 179° |
| 2026-05-09 02:14 | 40.72510 | -81.42844 | 4057 ft | 242 kts | 184° |
| 2026-05-09 02:14 | 40.70832 | -81.42615 | 3818 ft | 240 kts | 170° |
| 2026-05-09 02:14 | 40.69226 | -81.42095 | 3991 ft | 239 kts | 173° |
| 2026-05-09 02:14 | 40.67680 | -81.41200 | 4038 ft | 250 kts | 144° |
| 2026-05-09 02:15 | 40.66705 | -81.39277 | 4062 ft | 260 kts | 109° |
| 2026-05-09 02:15 | 40.66672 | -81.36887 | 4061 ft | 265 kts | 75° |
| 2026-05-09 02:15 | 40.67588 | -81.34844 | 4062 ft | 263 kts | 44° |
| 2026-05-09 02:15 | 40.68895 | -81.33131 | 4061 ft | 264 kts | 42° |
| 2026-05-09 02:16 | 40.70224 | -81.31439 | 4066 ft | 263 kts | 41° |
| 2026-05-09 02:16 | 40.71545 | -81.29763 | 4056 ft | 264 kts | 41° |
| 2026-05-09 02:16 | 40.72876 | -81.28097 | 4047 ft | 262 kts | 42° |
| 2026-05-09 02:16 | 40.74200 | -81.26415 | 4065 ft | 264 kts | 41° |
| 2026-05-09 02:17 | 40.75518 | -81.24741 | 4063 ft | 264 kts | 41° |
| 2026-05-09 02:17 | 40.76855 | -81.23041 | 4066 ft | 264 kts | 41° |
| 2026-05-09 02:17 | 40.78174 | -81.21358 | 4064 ft | 263 kts | 41° |
| 2026-05-09 02:17 | 40.79486 | -81.19698 | 4056 ft | 263 kts | 42° |
| 2026-05-09 02:18 | 40.80811 | -81.18022 | 4056 ft | 264 kts | 41° |
| 2026-05-09 02:18 | 40.82141 | -81.16342 | 4064 ft | 264 kts | 41° |
| 2026-05-09 02:18 | 40.83471 | -81.14667 | 4067 ft | 264 kts | 41° |
| 2026-05-09 02:18 | 40.84808 | -81.12980 | 4058 ft | 263 kts | 41° |
| 2026-05-09 02:19 | 40.86126 | -81.11301 | 4050 ft | 264 kts | 41° |
| 2026-05-09 02:19 | 40.87455 | -81.09639 | 4053 ft | 263 kts | 41° |
| 2026-05-09 02:19 | 40.88828 | -81.08004 | 4067 ft | 262 kts | 31° |
| 2026-05-09 02:19 | 40.90484 | -81.07195 | 4046 ft | 252 kts | 3° |
| 2026-05-09 02:20 | 40.92239 | -81.06934 | 4044 ft | 252 kts | 1° |
| 2026-05-09 02:20 | 40.93995 | -81.06682 | 4057 ft | 253 kts | 2° |
| 2026-05-09 02:20 | 40.95749 | -81.06416 | 4044 ft | 253 kts | 0° |
| 2026-05-09 02:20 | 40.97501 | -81.06150 | 4046 ft | 253 kts | 2° |
| 2026-05-09 02:21 | 40.99250 | -81.05890 | 4053 ft | 253 kts | 0° |
| 2026-05-09 02:21 | 41.01020 | -81.05640 | 4061 ft | 253 kts | 1° |
| 2026-05-09 02:21 | 41.02767 | -81.05393 | 4057 ft | 252 kts | 1° |
| 2026-05-09 02:21 | 41.04530 | -81.05176 | 4058 ft | 250 kts | 355° |
| 2026-05-09 02:22 | 41.06157 | -81.05701 | 3949 ft | 239 kts | 323° |
| 2026-05-09 02:22 | 41.07301 | -81.07179 | 3677 ft | 225 kts | 303° |
| 2026-05-09 02:22 | 41.08225 | -81.08849 | 3401 ft | 219 kts | 301° |
| 2026-05-09 02:22 | 41.09082 | -81.10476 | 3133 ft | 212 kts | 296° |
| 2026-05-09 02:23 | 41.09455 | -81.12298 | 2908 ft | 200 kts | 273° |
| 2026-05-09 02:23 | 41.09546 | -81.14103 | 2782 ft | 190 kts | 271° |
| 2026-05-09 02:23 | 41.09620 | -81.15793 | 2778 ft | 180 kts | 271° |
| 2026-05-09 02:23 | 41.09693 | -81.17460 | 2787 ft | 180 kts | 271° |
| 2026-05-09 02:24 | 41.09765 | -81.19138 | 2777 ft | 182 kts | 271° |
| 2026-05-09 02:24 | 41.09837 | -81.20804 | 2774 ft | 182 kts | 271° |
| 2026-05-09 02:24 | 41.09908 | -81.22475 | 2780 ft | 182 kts | 271° |
| 2026-05-09 02:24 | 41.09977 | -81.24164 | 2779 ft | 183 kts | 271° |
| 2026-05-09 02:25 | 41.10045 | -81.25867 | 2776 ft | 183 kts | 271° |
| 2026-05-09 02:25 | 41.10113 | -81.27537 | 2778 ft | 183 kts | 271° |
| 2026-05-09 02:25 | 41.10183 | -81.29225 | 2776 ft | 183 kts | 271° |
| 2026-05-09 02:25 | 41.10252 | -81.30935 | 2778 ft | 184 kts | 271° |
| 2026-05-09 02:26 | 41.10321 | -81.32612 | 2775 ft | 184 kts | 271° |
| 2026-05-09 02:26 | 41.10390 | -81.34314 | 2770 ft | 183 kts | 271° |
| 2026-05-09 02:26 | 41.10458 | -81.35995 | 2770 ft | 183 kts | 271° |
| 2026-05-09 02:26 | 41.10528 | -81.37695 | 2769 ft | 183 kts | 271° |
| 2026-05-09 02:27 | 41.10601 | -81.39369 | 2769 ft | 183 kts | 272° |
| 2026-05-09 02:27 | 41.10675 | -81.41048 | 2770 ft | 183 kts | 272° |
| 2026-05-09 02:27 | 41.10719 | -81.42727 | 2766 ft | 182 kts | 264° |
| 2026-05-09 02:27 | 41.10163 | -81.44190 | 2758 ft | 184 kts | 223° |
| 2026-05-09 02:28 | 41.08933 | -81.44696 | 2766 ft | 193 kts | 179° |
| 2026-05-09 02:28 | 41.07650 | -81.44085 | 2777 ft | 200 kts | 154° |
| 2026-05-09 02:28 | 41.06447 | -81.43173 | 2780 ft | 199 kts | 160° |
| 2026-05-09 02:28 | 41.05105 | -81.42858 | 2783 ft | 193 kts | 186° |
| 2026-05-09 02:29 | 41.03802 | -81.43084 | 2782 ft | 184 kts | 195° |
| 2026-05-09 02:29 | 41.02573 | -81.43363 | 2800 ft | 174 kts | 193° |
| 2026-05-09 02:29 | 41.01382 | -81.43530 | 2783 ft | 172 kts | 189° |
| 2026-05-09 02:29 | 41.00202 | -81.43607 | 2684 ft | 165 kts | 186° |
| 2026-05-09 02:30 | 40.99126 | -81.43642 | 2561 ft | 139 kts | 185° |
| 2026-05-09 02:30 | 40.98195 | -81.43676 | 2380 ft | 131 kts | 187° |
| 2026-05-09 02:30 | 40.97300 | -81.43732 | 2170 ft | 125 kts | 187° |
| 2026-05-09 02:30 | 40.96414 | -81.43799 | 2023 ft | 128 kts | 186° |
| 2026-05-09 02:31 | 40.95534 | -81.43843 | 1834 ft | 127 kts | 185° |
| 2026-05-09 02:31 | 40.94653 | -81.43911 | 1681 ft | 127 kts | 184° |
| 2026-05-09 02:31 | 40.93762 | -81.43967 | 1489 ft | 128 kts | 184° |
| 2026-05-09 02:31 | 40.92876 | -81.44011 | 1294 ft | 126 kts | 183° |
| 2026-05-09 02:32 | 40.92021 | -81.44062 | 1216 ft | 111 kts | 182° |
| 2026-05-09 02:32 | 40.91362 | -81.44102 | 1211 ft | 69 kts | 184° |
| 2026-05-09 02:32 | 40.91118 | -81.44113 | 1207 ft | 19 kts | 181° |
| 2026-05-09 02:32 | 40.91057 | -81.44077 | 1207 ft | 11 kts | 105° |
| 2026-05-09 02:33 | 40.91054 | -81.44016 | 1207 ft | 0 kts | 89° |
| 2026-05-09 02:33 | 40.91054 | -81.44012 | 1207 ft | 0 kts | 89° |
| 2026-05-09 02:34 | 40.91059 | -81.43986 | 1207 ft | 5 kts | 60° |
| 2026-05-09 02:34 | 40.91103 | -81.43968 | 1207 ft | 8 kts | 1° |
| 2026-05-09 02:34 | 40.91152 | -81.43958 | 1208 ft | 6 kts | 21° |
| 2026-05-09 02:35 | 40.91182 | -81.43942 | 1208 ft | 5 kts | 23° |
| 2026-05-09 02:35 | 40.91225 | -81.43918 | 1208 ft | 8 kts | 23° |
| 2026-05-09 02:35 | 40.91293 | -81.43879 | 1209 ft | 11 kts | 23° |
| 2026-05-09 02:35 | 40.91360 | -81.43884 | 1210 ft | 11 kts | 322° |
| 2026-05-09 02:36 | 40.91424 | -81.43932 | 1211 ft | 9 kts | 341° |
| 2026-05-09 02:36 | 40.91499 | -81.43949 | 1212 ft | 12 kts | 356° |
| 2026-05-09 02:36 | 40.91587 | -81.43925 | 1212 ft | 12 kts | 23° |
| 2026-05-09 02:36 | 40.91656 | -81.43865 | 1213 ft | 10 kts | 43° |
| 2026-05-09 02:37 | 40.91685 | -81.43783 | 1213 ft | 11 kts | 78° |
| 2026-05-09 02:37 | 40.91726 | -81.43700 | 1213 ft | 11 kts | 47° |
| 2026-05-09 02:37 | 40.91756 | -81.43646 | 1213 ft | 6 kts | 95° |
| 2026-05-09 02:37 | 40.91730 | -81.43596 | 1212 ft | 7 kts | 107° |
| 2026-05-09 02:38 | 40.91755 | -81.43536 | 1212 ft | 8 kts | 43° |
| 2026-05-09 02:38 | 40.91793 | -81.43502 | 1212 ft | 3 kts | 359° |
| 2026-05-09 02:38 | 40.91804 | -81.43533 | 1213 ft | 5 kts | 246° |
| 2026-05-09 02:38 | 40.91790 | -81.43544 | 1213 ft | 0 kts | 143° |
| 2026-05-09 02:39 | 40.91789 | -81.43543 | 1213 ft | 0 kts | 133° |
| 2026-05-09 02:39 | 40.91790 | -81.43543 | 1213 ft | 0 kts | 133° |
| 2026-05-09 02:39 | 40.91792 | -81.43546 | 1213 ft | 0 kts | 133° |